Time,TemperatureF,DewpointF,PressureIn,WindDirection,WindDirectionDegrees,WindSpeedMPH,WindSpeedGustMPH,Humidity,HourlyPrecipIn,Conditions,Clouds,dailyrainin,SoftwareType,DateUTC
2013-10-17 00:00:00,56.5,47.9,29.80,NNE,22,2.7,-999.0,73,-99.99,,,0.00,Acu-Link.com,2013-10-17 05:00:00,
2013-10-17 00:15:00,56.5,47.9,29.80,WNW,292,0.0,-999.0,73,-99.99,,,0.00,Acu-Link.com,2013-10-17 05:15:00,
2013-10-17 00:30:00,55.9,47.7,29.80,NW,315,0.0,-999.0,74,-99.99,,,0.00,Acu-Link.com,2013-10-17 05:30:00,
2013-10-17 00:46:00,55.4,47.3,29.80,NNE,22,1.1,-999.0,74,-99.99,,,0.00,Acu-Link.com,2013-10-17 05:46:00,
2013-10-17 01:01:00,55.0,47.2,29.80,North,0,1.1,-999.0,75,-99.99,,,0.00,Acu-Link.com,2013-10-17 06:01:00,
2013-10-17 01:17:00,54.3,46.9,29.80,West,270,0.0,-999.0,76,-99.99,,,0.00,Acu-Link.com,2013-10-17 06:17:00,
2013-10-17 01:32:00,54.1,46.7,29.80,NNW,337,1.7,-999.0,76,-99.99,,,0.00,Acu-Link.com,2013-10-17 06:32:00,
2013-10-17 01:47:00,53.4,46.0,29.81,NNW,337,0.0,-999.0,76,-99.99,,,0.00,Acu-Link.com,2013-10-17 06:47:00,
2013-10-17 02:02:00,53.1,46.1,29.80,NNE,22,0.0,-999.0,77,-99.99,,,0.00,Acu-Link.com,2013-10-17 07:02:00,
2013-10-17 02:17:00,52.7,45.7,29.80,NNE,22,0.0,-999.0,77,-99.99,,,0.00,Acu-Link.com,2013-10-17 07:17:00,
2013-10-17 02:33:00,52.5,46.2,29.80,North,0,0.0,-999.0,79,-99.99,,,0.00,Acu-Link.com,2013-10-17 07:33:00,
2013-10-17 02:48:00,52.2,45.9,29.80,NNE,22,0.0,-999.0,79,-99.99,,,0.00,Acu-Link.com,2013-10-17 07:48:00,
2013-10-17 03:04:00,51.1,45.5,29.80,NE,45,0.0,-999.0,81,-99.99,,,0.00,Acu-Link.com,2013-10-17 08:04:00,
2013-10-17 03:20:00,50.5,44.9,29.80,West,270,0.0,-999.0,81,-99.99,,,0.00,Acu-Link.com,2013-10-17 08:20:00,
2013-10-17 03:35:00,50.2,44.9,29.80,NW,315,0.0,-999.0,82,-99.99,,,0.00,Acu-Link.com,2013-10-17 08:35:00,
2013-10-17 03:51:00,49.3,44.4,29.80,WNW,292,0.0,-999.0,83,-99.99,,,0.00,Acu-Link.com,2013-10-17 08:51:00,
2013-10-17 04:06:00,48.9,44.3,29.80,SSW,202,0.0,-999.0,84,-99.99,,,0.00,Acu-Link.com,2013-10-17 09:06:00,
2013-10-17 04:22:00,48.0,44.3,29.80,West,270,0.0,-999.0,87,-99.99,,,0.00,Acu-Link.com,2013-10-17 09:22:00,
2013-10-17 04:37:00,45.7,43.2,29.79,NE,45,0.0,-999.0,91,-99.99,,,0.00,Acu-Link.com,2013-10-17 09:37:00,
2013-10-17 04:52:00,45.3,42.8,29.79,NW,315,0.0,-999.0,91,-99.99,,,0.00,Acu-Link.com,2013-10-17 09:52:00,
2013-10-17 05:07:00,45.1,42.6,29.80,ENE,67,0.0,-999.0,91,-99.99,,,0.00,Acu-Link.com,2013-10-17 10:07:00,
2013-10-17 05:38:00,45.0,42.8,29.80,NNE,22,0.0,-999.0,92,-99.99,,,0.00,Acu-Link.com,2013-10-17 10:38:00,
2013-10-17 05:53:00,44.4,42.2,29.80,NE,45,0.0,-999.0,92,-99.99,,,0.00,Acu-Link.com,2013-10-17 10:53:00,
2013-10-17 06:08:00,44.1,41.9,29.81,NNE,22,0.0,-999.0,92,-99.99,,,0.00,Acu-Link.com,2013-10-17 11:08:00,
2013-10-17 06:24:00,44.6,42.7,29.81,NW,315,0.0,-999.0,93,-99.99,,,0.00,Acu-Link.com,2013-10-17 11:24:00,
2013-10-17 06:39:00,43.7,41.8,29.81,North,0,0.0,-999.0,93,-99.99,,,0.00,Acu-Link.com,2013-10-17 11:39:00,
2013-10-17 06:54:00,42.8,40.6,29.82,ENE,67,0.0,-999.0,92,-99.99,,,0.00,Acu-Link.com,2013-10-17 11:54:00,
2013-10-17 07:09:00,43.2,41.3,29.81,NNW,337,0.0,-999.0,93,-99.99,,,0.00,Acu-Link.com,2013-10-17 12:09:00,
2013-10-17 07:25:00,42.8,40.9,29.82,SE,135,0.0,-999.0,93,-99.99,,,0.00,Acu-Link.com,2013-10-17 12:25:00,
2013-10-17 07:40:00,43.0,41.4,29.82,WNW,292,0.0,-999.0,94,-99.99,,,0.00,Acu-Link.com,2013-10-17 12:40:00,
2013-10-17 07:55:00,42.8,41.2,29.83,North,0,0.0,-999.0,94,-99.99,,,0.00,Acu-Link.com,2013-10-17 12:55:00,
2013-10-17 08:10:00,43.2,41.6,29.83,NW,315,0.0,-999.0,94,-99.99,,,0.00,Acu-Link.com,2013-10-17 13:10:00,
2013-10-17 08:25:00,44.2,42.6,29.84,WSW,247,0.0,-999.0,94,-99.99,,,0.00,Acu-Link.com,2013-10-17 13:25:00,
2013-10-17 08:41:00,48.4,47.0,29.84,NE,45,0.0,-999.0,95,-99.99,,,0.00,Acu-Link.com,2013-10-17 13:41:00,
2013-10-17 08:56:00,52.7,48.9,29.85,NE,45,0.0,-999.0,87,-99.99,,,0.00,Acu-Link.com,2013-10-17 13:56:00,
2013-10-17 09:12:00,52.3,46.3,29.85,East,90,0.0,-999.0,80,-99.99,,,0.00,Acu-Link.com,2013-10-17 14:12:00,
2013-10-17 09:27:00,54.1,47.1,29.86,East,90,0.0,-999.0,77,-99.99,,,0.00,Acu-Link.com,2013-10-17 14:27:00,
2013-10-17 09:42:00,55.0,47.2,29.86,NNW,337,0.0,-999.0,75,-99.99,,,0.00,Acu-Link.com,2013-10-17 14:42:00,
2013-10-17 09:57:00,55.9,46.3,29.87,ESE,112,0.0,-999.0,70,-99.99,,,0.00,Acu-Link.com,2013-10-17 14:57:00,
2013-10-17 10:13:00,57.7,46.4,29.87,WNW,292,0.0,-999.0,66,-99.99,,,0.00,Acu-Link.com,2013-10-17 15:13:00,
2013-10-17 10:28:00,59.2,47.8,29.87,West,270,2.2,-999.0,66,-99.99,,,0.00,Acu-Link.com,2013-10-17 15:28:00,
2013-10-17 10:43:00,59.0,47.7,29.87,WNW,292,0.0,-999.0,66,-99.99,,,0.00,Acu-Link.com,2013-10-17 15:43:00,
2013-10-17 10:59:00,61.2,47.6,29.86,NNW,337,0.0,-999.0,61,-99.99,,,0.00,Acu-Link.com,2013-10-17 15:59:00,
2013-10-17 11:14:00,62.6,47.6,29.86,East,90,0.0,-999.0,58,-99.99,,,0.00,Acu-Link.com,2013-10-17 16:14:00,
2013-10-17 11:29:00,62.4,47.0,29.86,WNW,292,0.0,-999.0,57,-99.99,,,0.00,Acu-Link.com,2013-10-17 16:29:00,
2013-10-17 11:44:00,63.3,47.3,29.85,SE,135,0.0,-999.0,56,-99.99,,,0.00,Acu-Link.com,2013-10-17 16:44:00,
2013-10-17 12:00:00,64.6,49.0,29.84,SSW,202,1.1,-999.0,57,-99.99,,,0.00,Acu-Link.com,2013-10-17 17:00:00,
2013-10-17 12:15:00,66.0,46.3,29.83,WSW,247,1.7,-999.0,49,-99.99,,,0.00,Acu-Link.com,2013-10-17 17:15:00,
2013-10-17 12:30:00,67.3,48.0,29.82,NNE,22,0.0,-999.0,50,-99.99,,,0.00,Acu-Link.com,2013-10-17 17:30:00,
2013-10-17 12:45:00,68.7,48.2,29.82,East,90,2.7,-999.0,48,-99.99,,,0.00,Acu-Link.com,2013-10-17 17:45:00,
2013-10-17 13:00:00,69.1,46.9,29.81,NNE,22,0.0,-999.0,45,-99.99,,,0.00,Acu-Link.com,2013-10-17 18:00:00,
2013-10-17 13:16:00,68.9,47.8,29.80,SSW,202,0.0,-999.0,47,-99.99,,,0.00,Acu-Link.com,2013-10-17 18:16:00,
2013-10-17 13:31:00,70.2,47.3,29.79,SSE,157,2.7,-999.0,44,-99.99,,,0.00,Acu-Link.com,2013-10-17 18:31:00,
2013-10-17 13:46:00,70.2,46.6,29.78,NNW,337,1.7,-999.0,43,-99.99,,,0.00,Acu-Link.com,2013-10-17 18:46:00,
2013-10-17 14:01:00,72.5,46.8,29.77,ESE,112,4.2,-999.0,40,-99.99,,,0.00,Acu-Link.com,2013-10-17 19:01:00,
2013-10-17 14:17:00,72.5,46.1,29.76,ESE,112,1.1,-999.0,39,-99.99,,,0.00,Acu-Link.com,2013-10-17 19:17:00,
2013-10-17 14:32:00,72.0,44.3,29.74,NNE,22,1.7,-999.0,37,-99.99,,,0.00,Acu-Link.com,2013-10-17 19:32:00,
2013-10-17 14:47:00,71.6,45.3,29.74,North,0,0.0,-999.0,39,-99.99,,,0.00,Acu-Link.com,2013-10-17 19:47:00,
2013-10-17 15:02:00,73.0,45.2,29.73,SE,135,4.2,-999.0,37,-99.99,,,0.00,Acu-Link.com,2013-10-17 20:02:00,
2013-10-17 15:17:00,74.5,47.9,29.73,SW,225,2.7,-999.0,39,-99.99,,,0.00,Acu-Link.com,2013-10-17 20:17:00,
2013-10-17 15:33:00,74.3,46.3,29.72,NNE,22,3.2,-999.0,37,-99.99,,,0.00,Acu-Link.com,2013-10-17 20:33:00,
2013-10-17 15:48:00,72.9,46.5,29.72,SSW,202,2.7,-999.0,39,-99.99,,,0.00,Acu-Link.com,2013-10-17 20:48:00,
2013-10-17 16:03:00,72.1,45.8,29.71,ESE,112,0.0,-999.0,39,-99.99,,,0.00,Acu-Link.com,2013-10-17 21:03:00,
2013-10-17 16:18:00,72.3,46.6,29.71,South,180,0.0,-999.0,40,-99.99,,,0.00,Acu-Link.com,2013-10-17 21:18:00,
2013-10-17 16:34:00,71.2,46.3,29.70,South,180,0.0,-999.0,41,-99.99,,,0.00,Acu-Link.com,2013-10-17 21:34:00,
2013-10-17 16:49:00,71.2,46.3,29.69,West,270,0.0,-999.0,41,-99.99,,,0.00,Acu-Link.com,2013-10-17 21:49:00,
2013-10-17 17:04:00,70.3,46.7,29.69,WNW,292,0.0,-999.0,43,-99.99,,,0.00,Acu-Link.com,2013-10-17 22:04:00,
2013-10-17 17:19:00,71.8,45.5,29.69,ESE,112,0.0,-999.0,39,-99.99,,,0.00,Acu-Link.com,2013-10-17 22:19:00,
2013-10-17 17:34:00,71.1,47.5,29.69,WNW,292,0.0,-999.0,43,-99.99,,,0.00,Acu-Link.com,2013-10-17 22:34:00,
2013-10-17 17:50:00,70.3,47.9,29.68,WSW,247,0.0,-999.0,45,-99.99,,,0.00,Acu-Link.com,2013-10-17 22:50:00,
2013-10-17 18:05:00,69.6,44.8,29.69,SSW,202,2.2,-999.0,41,-99.99,,,0.00,Acu-Link.com,2013-10-17 23:05:00,
2013-10-17 18:20:00,68.9,45.5,29.69,SSE,157,0.0,-999.0,43,-99.99,,,0.00,Acu-Link.com,2013-10-17 23:20:00,
2013-10-17 18:36:00,67.8,45.7,29.69,SSE,157,0.0,-999.0,45,-99.99,,,0.00,Acu-Link.com,2013-10-17 23:36:00,
2013-10-17 18:51:00,66.2,47.0,29.69,NNE,22,0.0,-999.0,50,-99.99,,,0.00,Acu-Link.com,2013-10-17 23:51:00,
2013-10-17 19:06:00,64.0,48.9,29.69,SSW,202,0.0,-999.0,58,-99.99,,,0.00,Acu-Link.com,2013-10-18 00:06:00,
2013-10-17 19:22:00,62.2,48.6,29.69,West,270,0.0,-999.0,61,-99.99,,,0.00,Acu-Link.com,2013-10-18 00:22:00,
2013-10-17 19:37:00,60.6,49.2,29.70,West,270,0.0,-999.0,66,-99.99,,,0.00,Acu-Link.com,2013-10-18 00:37:00,
2013-10-17 19:52:00,59.4,48.8,29.70,North,0,0.0,-999.0,68,-99.99,,,0.00,Acu-Link.com,2013-10-18 00:52:00,
2013-10-17 20:07:00,58.1,49.5,29.70,NE,45,0.0,-999.0,73,-99.99,,,0.00,Acu-Link.com,2013-10-18 01:07:00,
2013-10-17 20:23:00,57.4,49.2,29.70,NE,45,0.0,-999.0,74,-99.99,,,0.00,Acu-Link.com,2013-10-18 01:23:00,
2013-10-17 20:38:00,57.0,48.8,29.71,ENE,67,0.0,-999.0,74,-99.99,,,0.00,Acu-Link.com,2013-10-18 01:38:00,
2013-10-17 20:53:00,56.3,49.2,29.71,ENE,67,0.0,-999.0,77,-99.99,,,0.00,Acu-Link.com,2013-10-18 01:53:00,
2013-10-17 21:08:00,55.4,49.0,29.72,ENE,67,0.0,-999.0,79,-99.99,,,0.00,Acu-Link.com,2013-10-18 02:08:00,
2013-10-17 21:24:00,54.7,49.0,29.72,ENE,67,0.0,-999.0,81,-99.99,,,0.00,Acu-Link.com,2013-10-18 02:24:00,
2013-10-17 21:39:00,54.7,49.0,29.72,WNW,292,0.0,-999.0,81,-99.99,,,0.00,Acu-Link.com,2013-10-18 02:39:00,
2013-10-17 21:54:00,54.5,49.1,29.72,NNW,337,0.0,-999.0,82,-99.99,,,0.00,Acu-Link.com,2013-10-18 02:54:00,
2013-10-17 22:09:00,54.0,49.3,29.72,North,0,0.0,-999.0,84,-99.99,,,0.00,Acu-Link.com,2013-10-18 03:09:00,
2013-10-17 22:24:00,53.4,49.0,29.72,NNW,337,0.0,-999.0,85,-99.99,,,0.00,Acu-Link.com,2013-10-18 03:24:00,
2013-10-17 22:40:00,53.1,49.3,29.72,NW,315,0.0,-999.0,87,-99.99,,,0.00,Acu-Link.com,2013-10-18 03:40:00,
2013-10-17 22:55:00,52.9,49.1,29.72,NNE,22,0.0,-999.0,87,-99.99,,,0.00,Acu-Link.com,2013-10-18 03:55:00,
2013-10-17 23:10:00,53.1,49.9,29.72,WNW,292,0.0,-999.0,89,-99.99,,,0.00,Acu-Link.com,2013-10-18 04:10:00,
2013-10-17 23:25:00,52.3,48.9,29.72,ESE,112,0.0,-999.0,88,-99.99,,,0.00,Acu-Link.com,2013-10-18 04:25:00,
2013-10-17 23:41:00,52.0,48.9,29.71,NE,45,0.0,-999.0,89,-99.99,,,0.00,Acu-Link.com,2013-10-18 04:41:00,
2013-10-17 23:56:00,51.4,48.3,29.71,NNE,22,0.0,-999.0,89,-99.99,,,0.00,Acu-Link.com,2013-10-18 04:56:00,